Volgo-balt_220 — V3QF6 — position and weather

sailwx.info

Track history (hours):
 
Tides and Currents Weather Stations Pressure Air Temp Water Temp Dewpoint Dewpoint Depression Visibility Wind Speed Wind Dir Waves Ship Positions

Volgo-balt_220

Last reported at 2014-Jul-28 09:33 UTC. Time now 2014-Jul-30 23:17 UTC.
Position N 44°15' E 034°21'.

; draft 3.7 m.

Type: Cargo ship. MMSI: 312794000.

Date/timePositionNaut miles runAvg speedWind from/ knotsBaromVisibWave heightAir tempDewpointWater temp
2014-Jul-28 09:33N 44°15' E 034°21'8 7.6
2014-Jul-28 08:30N 44°16' E 034°33'7 7.7
2014-Jul-28 07:33N 44°21' E 034°40'8 7.6
2014-Jul-28 06:33N 44°26' E 034°49'  
2014-Jul-20 22:31N 44°31' E 034°54'7 7.6
2014-Jul-20 21:33N 44°28' E 034°44'8 7.6
2014-Jul-20 20:33N 44°25' E 034°34'8 7.5
2014-Jul-20 19:33N 44°23' E 034°24'9 7.5
2014-Jul-20 18:20N 44°16' E 034°15'7 7.6
2014-Jul-20 17:25N 44°10' E 034°10'  
Track history (hours):
 
Tides and Currents Weather Stations Pressure Air Temp Water Temp Dewpoint Dewpoint Depression Visibility Wind Speed Wind Dir Waves Ship Positions

Volgo-balt_220

Last reported at 2014-Jul-28 09:33 UTC. Time now 2014-Jul-30 23:17 UTC.
Position N 44°15' E 034°21'.

; draft 3.7 m.

Type: Cargo ship. MMSI: 312794000.

Date/timePositionNaut miles runAvg speedWind from/ knotsBaromVisibWave heightAir tempDewpointWater temp
2014-Jul-28 09:33N 44°15' E 034°21'8 7.6
2014-Jul-28 08:30N 44°16' E 034°33'7 7.7
2014-Jul-28 07:33N 44°21' E 034°40'8 7.6
2014-Jul-28 06:33N 44°26' E 034°49'  
2014-Jul-20 22:31N 44°31' E 034°54'7 7.6
2014-Jul-20 21:33N 44°28' E 034°44'8 7.6
2014-Jul-20 20:33N 44°25' E 034°34'8 7.5
2014-Jul-20 19:33N 44°23' E 034°24'9 7.5
2014-Jul-20 18:20N 44°16' E 034°15'7 7.6
2014-Jul-20 17:25N 44°10' E 034°10'  

Dump ship's entire track history